Time;durP1;ratioP1;P1;durP2;ratioP2;P2;SDS_P1;SDS_P2;PMS_P1;PMS_P2;Temp;Humidity;BMP_temperature;BMP_pressure;BME280_temperature;BME280_humidity;BME280_pressure;Samples;Min_cycle;Max_cycle;Signal;HPM_P1;HPM_P2
2022/05/24 00:00:34;;;;;;;8.38;5.78;;;;;;;;;;5060595;28;20028;-75
2022/05/24 00:03:03;;;;;;;11.55;6.07;;;;;;;;;;5062289;28;20082;-76
2022/05/24 00:05:30;;;;;;;6.90;4.85;;;;;;;;;;5060427;28;20043;-75
2022/05/24 00:07:56;;;;;;;6.63;5.40;;;;;;;;;;5066006;28;20028;-74
2022/05/24 00:10:28;;;;;;;6.38;4.97;;;;;;;;;;5070828;28;20031;-76
2022/05/24 00:12:54;;;;;;;7.28;5.18;;;;;;;;;;5080162;28;20037;-75
2022/05/24 00:15:23;;;;;;;8.05;4.63;;;;;;;;;;5075876;28;20032;-75
2022/05/24 00:18:02;;;;;;;5.28;4.57;;;;;;;;;;5065953;28;20033;-76
2022/05/24 00:20:30;;;;;;;6.28;4.13;;;;;;;;;;5080384;28;20035;-74
2022/05/24 00:22:56;;;;;;;7.10;4.35;;;;;;;;;;5085851;28;20510;-75
2022/05/24 00:25:23;;;;;;;5.72;4.13;;;;;;;;;;5083881;28;20083;-75
2022/05/24 00:27:49;;;;;;;4.65;4.10;;;;;;;;;;5084278;28;20039;-76
2022/05/24 00:30:17;;;;;;;5.80;4.30;;;;;;;;;;5085012;28;20081;-76
2022/05/24 00:32:43;;;;;;;6.45;4.25;;;;;;;;;;5072460;28;20025;-76
2022/05/24 00:35:09;;;;;;;6.93;4.60;;;;;;;;;;5073287;28;20119;-76
2022/05/24 00:37:37;;;;;;;6.07;4.28;;;;;;;;;;5084565;28;20028;-76
2022/05/24 00:40:04;;;;;;;6.75;4.22;;;;;;;;;;5085098;28;20067;-75
2022/05/24 00:42:32;;;;;;;4.80;4.22;;;;;;;;;;5084115;28;20089;-76
2022/05/24 00:45:20;;;;;;;6.00;4.53;;;;;;;;;;5085238;28;20547;-75
2022/05/24 00:47:51;;;;;;;11.90;4.93;;;;;;;;;;5072489;28;20107;-75
2022/05/24 00:50:20;;;;;;;7.65;4.72;;;;;;;;;;5073783;28;20089;-76
2022/05/24 00:52:55;;;;;;;10.10;4.60;;;;;;;;;;5063713;28;20196;-75
2022/05/24 00:55:22;;;;;;;5.20;4.10;;;;;;;;;;5064699;28;20102;-75
2022/05/24 00:57:58;;;;;;;8.10;5.00;;;;;;;;;;5064280;28;20881;-76
2022/05/24 01:00:25;;;;;;;7.93;4.60;;;;;;;;;;5063712;28;20036;-76
2022/05/24 01:02:51;;;;;;;7.60;4.65;;;;;;;;;;5065222;28;20035;-75
2022/05/24 01:05:21;;;;;;;8.07;4.40;;;;;;;;;;5064623;28;20043;-75
2022/05/24 01:07:47;;;;;;;5.90;4.43;;;;;;;;;;5072801;28;20032;-75
2022/05/24 01:10:18;;;;;;;6.22;4.43;;;;;;;;;;5069982;28;20028;-76
2022/05/24 01:12:49;;;;;;;7.68;4.13;;;;;;;;;;5064985;28;20810;-76
2022/05/24 01:15:16;;;;;;;6.15;4.13;;;;;;;;;;5064954;28;20055;-76
2022/05/24 01:17:44;;;;;;;7.60;4.18;;;;;;;;;;5065222;28;20059;-76
2022/05/24 01:20:10;;;;;;;8.27;4.43;;;;;;;;;;5067515;28;20052;-76
2022/05/24 01:22:45;;;;;;;9.52;5.05;;;;;;;;;;5067190;28;20024;-75
2022/05/24 01:25:14;;;;;;;7.03;4.53;;;;;;;;;;5064720;28;20412;-76
2022/05/24 01:27:41;;;;;;;5.53;4.68;;;;;;;;;;5085213;28;20031;-76
2022/05/24 01:30:08;;;;;;;5.95;5.05;;;;;;;;;;5084580;28;20020;-75
2022/05/24 01:38:05;;;;;;;6.80;5.78;;;;;;;;;;5065414;28;20043;-76
2022/05/24 01:40:31;;;;;;;7.25;6.30;;;;;;;;;;5064566;28;20024;-74
2022/05/24 01:42:57;;;;;;;9.30;6.55;;;;;;;;;;5075557;28;20385;-76
2022/05/24 01:45:35;;;;;;;11.73;6.20;;;;;;;;;;5081663;28;20182;-76
2022/05/24 01:48:07;;;;;;;7.80;5.85;;;;;;;;;;5067328;28;20032;-75
2022/05/24 01:50:34;;;;;;;9.95;5.82;;;;;;;;;;5073408;28;20032;-76
2022/05/24 01:53:06;;;;;;;12.57;6.05;;;;;;;;;;5083406;28;20381;-76
2022/05/24 01:55:32;;;;;;;;;;;;;;;;;;5088062;28;20484;-75
2022/05/24 01:58:00;;;;;;;7.00;6.25;;;;;;;;;;5083975;28;19962;-76
2022/05/24 02:00:26;;;;;;;8.00;5.75;;;;;;;;;;5069780;28;20035;-76
2022/05/24 02:02:52;;;;;;;11.02;5.90;;;;;;;;;;5064146;28;20254;-76
2022/05/24 02:05:34;;;;;;;8.05;4.65;;;;;;;;;;5064057;28;20109;-76
2022/05/24 02:08:01;;;;;;;7.28;5.53;;;;;;;;;;5063113;28;20611;-76
2022/05/24 02:10:28;;;;;;;8.70;6.05;;;;;;;;;;5061588;28;20024;-76
2022/05/24 02:12:56;;;;;;;6.95;6.25;;;;;;;;;;5063407;28;20276;-76
2022/05/24 02:15:24;;;;;;;7.80;6.50;;;;;;;;;;5063584;28;20032;-76
2022/05/24 02:18:12;;;;;;;9.52;6.60;;;;;;;;;;5082571;28;20100;-76
2022/05/24 02:20:40;;;;;;;9.77;6.10;;;;;;;;;;5074740;28;20035;-75
2022/05/24 02:23:07;;;;;;;8.98;6.10;;;;;;;;;;5073971;28;20033;-75
2022/05/24 02:25:33;;;;;;;8.80;6.13;;;;;;;;;;5078453;28;20052;-75
2022/05/24 02:28:00;;;;;;;7.05;6.00;;;;;;;;;;5079423;28;20090;-76
2022/05/24 02:30:27;;;;;;;5.95;5.28;;;;;;;;;;5061287;28;20028;-76
2022/05/24 02:32:53;;;;;;;6.60;5.93;;;;;;;;;;5077654;28;20024;-75
2022/05/24 02:35:20;;;;;;;9.23;5.95;;;;;;;;;;5080223;28;20028;-76
2022/05/24 02:37:46;;;;;;;10.18;6.07;;;;;;;;;;5061524;28;20090;-75
2022/05/24 02:42:58;;;;;;;9.15;6.93;;;;;;;;;;5063148;28;20123;-76
2022/05/24 02:45:24;;;;;;;10.07;6.50;;;;;;;;;;5063653;28;20044;-76
2022/05/24 02:47:51;;;;;;;8.57;6.82;;;;;;;;;;5062707;28;20676;-76
2022/05/24 02:50:17;;;;;;;7.13;6.35;;;;;;;;;;5061680;28;20764;-76
2022/05/24 02:52:43;;;;;;;10.75;6.53;;;;;;;;;;5061612;28;20024;-75
2022/05/24 02:55:10;;;;;;;5.90;5.30;;;;;;;;;;5063549;28;20032;-75
2022/05/24 02:57:37;;;;;;;7.43;5.50;;;;;;;;;;5061106;28;20615;-75
2022/05/24 03:00:08;;;;;;;7.15;5.50;;;;;;;;;;5063029;28;20029;-75
2022/05/24 03:02:34;;;;;;;8.27;5.07;;;;;;;;;;5072122;28;20041;-75
2022/05/24 03:05:01;;;;;;;6.30;4.85;;;;;;;;;;5077093;28;20546;-76
2022/05/24 03:10:12;;;;;;;7.15;5.78;;;;;;;;;;5085086;28;20106;-76
2022/05/24 03:15:23;;;;;;;8.25;5.55;;;;;;;;;;5065162;28;20043;-75
2022/05/24 03:17:49;;;;;;;7.20;5.38;;;;;;;;;;5063431;28;20027;-76
2022/05/24 03:20:16;;;;;;;9.82;6.00;;;;;;;;;;5062595;28;20028;-75
2022/05/24 03:22:42;;;;;;;6.95;4.82;;;;;;;;;;5061280;28;20396;-75
2022/05/24 03:25:08;;;;;;;6.30;5.00;;;;;;;;;;5061474;28;20044;-75
2022/05/24 03:27:35;;;;;;;6.60;4.43;;;;;;;;;;5063102;28;20024;-76
2022/05/24 03:30:01;;;;;;;8.32;4.70;;;;;;;;;;5078188;28;20055;-76
2022/05/24 03:32:28;;;;;;;6.82;4.45;;;;;;;;;;5079874;28;20023;-75
2022/05/24 03:34:54;;;;;;;7.05;4.45;;;;;;;;;;5079784;28;20024;-75
2022/05/24 03:37:21;;;;;;;7.82;4.45;;;;;;;;;;5078411;28;20151;-75
2022/05/24 03:39:47;;;;;;;5.68;4.18;;;;;;;;;;5057924;28;20058;-74
2022/05/24 03:42:14;;;;;;;5.90;4.15;;;;;;;;;;5063476;28;20033;-75
2022/05/24 03:44:40;;;;;;;8.65;4.30;;;;;;;;;;5063773;28;20036;-76
2022/05/24 03:47:06;;;;;;;6.05;4.88;;;;;;;;;;5072036;28;20067;-76
2022/05/24 03:49:33;;;;;;;7.75;4.32;;;;;;;;;;5078436;28;20431;-75
2022/05/24 03:51:59;;;;;;;8.45;4.82;;;;;;;;;;5071982;28;20617;-76
2022/05/24 03:54:25;;;;;;;10.82;5.43;;;;;;;;;;5063095;28;20098;-76
2022/05/24 03:59:36;;;;;;;6.45;4.82;;;;;;;;;;5062529;28;20110;-75
2022/05/24 04:02:02;;;;;;;6.95;4.60;;;;;;;;;;5063210;28;20067;-76
2022/05/24 04:04:29;;;;;;;7.63;4.97;;;;;;;;;;5062591;28;20032;-74
2022/05/24 04:06:55;;;;;;;7.30;5.20;;;;;;;;;;5083479;28;20029;-76
2022/05/24 04:09:21;;;;;;;5.07;4.57;;;;;;;;;;5063693;28;20040;-75
2022/05/24 04:11:48;;;;;;;8.10;5.88;;;;;;;;;;5062185;28;20082;-75
2022/05/24 04:14:14;;;;;;;8.50;4.90;;;;;;;;;;5063235;28;20043;-75
2022/05/24 04:16:40;;;;;;;8.18;4.85;;;;;;;;;;5062688;28;20400;-75
2022/05/24 04:19:06;;;;;;;6.20;4.65;;;;;;;;;;5061846;28;20612;-75
2022/05/24 04:21:33;;;;;;;6.35;4.90;;;;;;;;;;5074363;28;20135;-75
2022/05/24 04:23:59;;;;;;;5.45;4.95;;;;;;;;;;5082554;28;20044;-75
2022/05/24 04:26:25;;;;;;;7.28;4.75;;;;;;;;;;5083150;28;20080;-75
2022/05/24 04:28:51;;;;;;;5.75;5.07;;;;;;;;;;5081623;28;20111;-75
2022/05/24 04:31:17;;;;;;;7.55;5.10;;;;;;;;;;5082962;28;20085;-75
2022/05/24 04:33:44;;;;;;;6.10;4.72;;;;;;;;;;5083124;28;20020;-74
2022/05/24 04:36:10;;;;;;;6.75;4.38;;;;;;;;;;5068390;28;20024;-76
2022/05/24 04:38:36;;;;;;;5.15;4.63;;;;;;;;;;5061202;28;20032;-75
2022/05/24 04:43:47;;;;;;;6.43;4.88;;;;;;;;;;5062547;28;20803;-75
2022/05/24 04:46:13;;;;;;;6.05;5.40;;;;;;;;;;5058937;28;20033;-76
2022/05/24 04:48:39;;;;;;;8.50;6.30;;;;;;;;;;5062005;28;20142;-76
2022/05/24 04:51:06;;;;;;;8.30;6.53;;;;;;;;;;5062423;28;20024;-75
2022/05/24 04:53:32;;;;;;;9.77;6.55;;;;;;;;;;5060320;28;20117;-75
2022/05/24 04:55:58;;;;;;;9.48;5.90;;;;;;;;;;5062146;28;20047;-75
2022/05/24 04:58:24;;;;;;;8.55;5.72;;;;;;;;;;5060575;28;20056;-76
2022/05/24 05:00:51;;;;;;;7.70;5.45;;;;;;;;;;5062043;28;20618;-75
2022/05/24 05:03:18;;;;;;;8.70;6.22;;;;;;;;;;5073505;28;20024;-82
2022/05/24 05:05:45;;;;;;;9.27;6.30;;;;;;;;;;5084816;28;20048;-81
2022/05/24 05:08:11;;;;;;;7.80;5.32;;;;;;;;;;5078637;28;20086;-81
2022/05/24 05:10:37;;;;;;;9.23;6.03;;;;;;;;;;5062108;28;20735;-79
2022/05/24 05:13:04;;;;;;;6.40;5.22;;;;;;;;;;5064998;28;20029;-78
2022/05/24 05:15:34;;;;;;;8.25;6.45;;;;;;;;;;5067878;28;20520;-77
2022/05/24 05:18:07;;;;;;;9.30;5.60;;;;;;;;;;5074474;28;20500;-80
2022/05/24 05:20:38;;;;;;;10.52;5.65;;;;;;;;;;5065348;28;20384;-74
2022/05/24 05:23:04;;;;;;;;;;;;;;;;;;5073305;28;20031;-73
2022/05/24 05:25:31;;;;;;;6.78;5.28;;;;;;;;;;5082243;28;19951;-73
2022/05/24 05:27:57;;;;;;;12.18;6.20;;;;;;;;;;5083496;28;20510;-74
2022/05/24 05:33:08;;;;;;;7.22;5.90;;;;;;;;;;5084441;28;20042;-73
2022/05/24 05:35:34;;;;;;;8.68;6.55;;;;;;;;;;5081889;28;20206;-73
2022/05/24 05:38:00;;;;;;;8.48;6.15;;;;;;;;;;5084099;28;20093;-73
2022/05/24 05:40:26;;;;;;;10.70;6.97;;;;;;;;;;5083564;28;20028;-72
2022/05/24 05:42:52;;;;;;;13.80;8.02;;;;;;;;;;5083018;28;20505;-72
2022/05/24 05:45:19;;;;;;;10.95;7.90;;;;;;;;;;5070716;28;20202;-72
2022/05/24 05:47:45;;;;;;;11.30;7.15;;;;;;;;;;5061919;28;20028;-72
2022/05/24 05:50:11;;;;;;;11.50;7.90;;;;;;;;;;5063687;28;20281;-72
2022/05/24 05:52:37;;;;;;;12.02;8.93;;;;;;;;;;5063351;28;20021;-72
2022/05/24 05:55:03;;;;;;;13.38;8.18;;;;;;;;;;5061221;28;20040;-72
2022/05/24 05:57:30;;;;;;;11.60;8.50;;;;;;;;;;5064685;28;20178;-72
2022/05/24 05:59:56;;;;;;;13.88;9.75;;;;;;;;;;5081569;28;20577;-72
2022/05/24 06:02:22;;;;;;;12.98;8.77;;;;;;;;;;5081426;28;20034;-73
2022/05/24 06:04:48;;;;;;;12.85;8.52;;;;;;;;;;5077375;28;20028;-72
2022/05/24 06:07:14;;;;;;;13.57;8.38;;;;;;;;;;5081130;28;20462;-73
2022/05/24 06:09:40;;;;;;;10.55;8.68;;;;;;;;;;5080090;28;20563;-72
2022/05/24 06:12:07;;;;;;;17.42;9.20;;;;;;;;;;5074628;28;20551;-72
2022/05/24 06:14:33;;;;;;;14.68;8.93;;;;;;;;;;5068605;28;20327;-72
2022/05/24 06:16:59;;;;;;;13.15;8.73;;;;;;;;;;5060229;28;20055;-73
2022/05/24 06:19:25;;;;;;;16.05;9.35;;;;;;;;;;5062504;28;20020;-72
2022/05/24 06:21:51;;;;;;;15.77;9.10;;;;;;;;;;5060332;28;20024;-73
2022/05/24 06:24:18;;;;;;;16.30;9.45;;;;;;;;;;5066348;28;20040;-72
2022/05/24 06:26:44;;;;;;;21.90;9.32;;;;;;;;;;5075186;28;20036;-72
2022/05/24 06:29:11;;;;;;;16.73;10.20;;;;;;;;;;5077086;28;20364;-72
2022/05/24 06:31:37;;;;;;;14.40;9.07;;;;;;;;;;5074209;28;20271;-72
2022/05/24 06:34:03;;;;;;;16.27;10.70;;;;;;;;;;5080529;28;20495;-73
2022/05/24 06:36:29;;;;;;;17.35;11.40;;;;;;;;;;5079890;28;20108;-72
2022/05/24 06:38:55;;;;;;;15.48;11.48;;;;;;;;;;5082742;28;20081;-72
2022/05/24 06:41:22;;;;;;;18.15;10.65;;;;;;;;;;5083066;28;20444;-72
2022/05/24 06:43:48;;;;;;;13.80;10.20;;;;;;;;;;5082606;28;20028;-73
2022/05/24 06:46:14;;;;;;;15.57;10.77;;;;;;;;;;5081266;28;20498;-72
2022/05/24 06:48:42;;;;;;;16.23;11.73;;;;;;;;;;5082491;28;20038;-73
2022/05/24 06:51:12;;;;;;;21.50;13.55;;;;;;;;;;5082554;28;20048;-73
2022/05/24 06:53:39;;;;;;;23.48;15.00;;;;;;;;;;5074513;28;20111;-73
2022/05/24 06:56:06;;;;;;;19.40;13.52;;;;;;;;;;5069495;28;20039;-72
2022/05/24 06:58:33;;;;;;;16.50;11.57;;;;;;;;;;5078579;28;20527;-72
2022/05/24 07:03:45;;;;;;;11.68;7.80;;;;;;;;;;5051989;28;20078;-72
2022/05/24 07:06:12;;;;;;;10.98;8.50;;;;;;;;;;5062147;28;20033;-72
2022/05/24 07:08:48;;;;;;;10.32;7.75;;;;;;;;;;5062125;28;20042;-72
2022/05/24 07:11:16;;;;;;;11.23;6.38;;;;;;;;;;5073660;28;20045;-73
2022/05/24 07:13:42;;;;;;;8.90;6.28;;;;;;;;;;5081905;28;20027;-72
2022/05/24 07:16:09;;;;;;;9.25;6.13;;;;;;;;;;5081572;28;20020;-72
2022/05/24 07:18:36;;;;;;;9.23;7.47;;;;;;;;;;5082257;28;20120;-73
2022/05/24 07:21:02;;;;;;;9.45;6.30;;;;;;;;;;5082417;28;20043;-73
2022/05/24 07:23:28;;;;;;;9.02;7.10;;;;;;;;;;5080246;28;20036;-73
2022/05/24 07:26:07;;;;;;;11.20;8.20;;;;;;;;;;5075591;28;20052;-72
2022/05/24 07:28:36;;;;;;;9.32;7.00;;;;;;;;;;5081204;28;20031;-72
2022/05/24 07:31:03;;;;;;;10.10;7.70;;;;;;;;;;5070998;28;20270;-72
2022/05/24 07:33:29;;;;;;;18.70;13.20;;;;;;;;;;5080007;28;20016;-72
2022/05/24 07:35:55;;;;;;;23.83;12.13;;;;;;;;;;5074321;28;20044;-72
2022/05/24 07:38:21;;;;;;;18.55;10.82;;;;;;;;;;5079221;28;20453;-72
2022/05/24 07:46:17;;;;;;;8.68;6.75;;;;;;;;;;5075321;28;20177;-72
2022/05/24 07:48:43;;;;;;;9.38;6.63;;;;;;;;;;5070969;28;20411;-72
2022/05/24 07:51:10;;;;;;;12.85;6.78;;;;;;;;;;5061549;28;20039;-72
2022/05/24 07:53:36;;;;;;;10.15;6.18;;;;;;;;;;5073677;28;20525;-72
2022/05/24 07:56:03;;;;;;;11.27;6.30;;;;;;;;;;5078436;28;20030;-73
2022/05/24 07:58:29;;;;;;;15.65;7.13;;;;;;;;;;5077818;28;20020;-73
2022/05/24 08:00:56;;;;;;;8.05;7.05;;;;;;;;;;5081736;28;20028;-72
2022/05/24 08:03:23;;;;;;;12.75;6.60;;;;;;;;;;5078359;28;20050;-72
2022/05/24 08:05:49;;;;;;;8.95;6.10;;;;;;;;;;5081724;28;20398;-72
2022/05/24 08:08:17;;;;;;;9.75;6.20;;;;;;;;;;5081399;28;20560;-72
2022/05/24 08:10:43;;;;;;;9.95;6.07;;;;;;;;;;5081781;28;20028;-72
2022/05/24 08:13:11;;;;;;;11.50;5.97;;;;;;;;;;5081531;28;20016;-72
2022/05/24 08:15:37;;;;;;;8.70;5.72;;;;;;;;;;5081426;28;20506;-73
2022/05/24 08:18:04;;;;;;;10.02;6.45;;;;;;;;;;5077755;28;20038;-73
2022/05/24 08:20:31;;;;;;;6.53;5.47;;;;;;;;;;5070307;28;20020;-73
2022/05/24 08:22:57;;;;;;;8.43;6.03;;;;;;;;;;5064291;28;20082;-72
2022/05/24 08:25:24;;;;;;;10.52;6.40;;;;;;;;;;5069090;28;20044;-73
2022/05/24 08:27:51;;;;;;;9.32;5.45;;;;;;;;;;5065236;28;20025;-72
2022/05/24 08:30:18;;;;;;;11.80;5.75;;;;;;;;;;5062928;28;20025;-74
2022/05/24 08:32:46;;;;;;;7.78;5.25;;;;;;;;;;5064652;28;20012;-73
2022/05/24 08:35:14;;;;;;;9.07;5.97;;;;;;;;;;5065355;28;20048;-72
2022/05/24 08:37:41;;;;;;;9.38;5.72;;;;;;;;;;5064681;28;20017;-72
2022/05/24 08:40:08;;;;;;;10.38;6.32;;;;;;;;;;5069824;28;20032;-72
2022/05/24 08:43:11;;;;;;;16.15;8.50;;;;;;;;;;5078096;28;20028;-72
2022/05/24 08:48:44;;;;;;;8.52;6.13;;;;;;;;;;5074480;28;20231;-75
2022/05/24 08:51:16;;;;;;;13.15;6.47;;;;;;;;;;5074509;28;20028;-73
2022/05/24 08:53:46;;;;;;;8.98;5.28;;;;;;;;;;5067994;28;20713;-73
2022/05/24 08:56:16;;;;;;;12.63;6.50;;;;;;;;;;5061844;28;20036;-73
2022/05/24 08:58:50;;;;;;;15.50;8.25;;;;;;;;;;5061969;28;20019;-73
2022/05/24 09:01:22;;;;;;;11.43;7.10;;;;;;;;;;5066063;28;20025;-72
2022/05/24 09:03:48;;;;;;;8.00;4.70;;;;;;;;;;5075218;28;20020;-73
2022/05/24 09:06:14;;;;;;;6.30;4.53;;;;;;;;;;5065796;28;20500;-71
2022/05/24 09:09:01;;;;;;;10.55;7.10;;;;;;;;;;5067402;28;20102;-73
2022/05/24 09:11:42;;;;;;;11.15;5.65;;;;;;;;;;5030619;28;20135;-71
2022/05/24 09:14:11;;;;;;;12.70;8.48;;;;;;;;;;5069918;28;20031;-72
2022/05/24 09:16:41;;;;;;;15.30;9.07;;;;;;;;;;5062676;28;20659;-72
2022/05/24 09:19:23;;;;;;;7.50;5.68;;;;;;;;;;5062444;28;20424;-72
2022/05/24 09:21:52;;;;;;;9.75;5.28;;;;;;;;;;5061277;28;20028;-72
2022/05/24 09:24:34;;;;;;;10.50;7.28;;;;;;;;;;5063069;28;20115;-73
2022/05/24 09:27:04;;;;;;;12.77;6.50;;;;;;;;;;5071663;28;20024;-73
2022/05/24 09:29:31;;;;;;;22.30;11.55;;;;;;;;;;5078768;28;20111;-73
2022/05/24 09:31:59;;;;;;;16.90;10.27;;;;;;;;;;5081801;28;20039;-73
2022/05/24 09:34:35;;;;;;;10.68;5.10;;;;;;;;;;5075257;28;20032;-74
2022/05/24 09:37:02;;;;;;;7.80;4.93;;;;;;;;;;5060034;28;20052;-72
2022/05/24 09:39:34;;;;;;;13.60;7.38;;;;;;;;;;5073104;28;20034;-73
2022/05/24 09:42:24;;;;;;;7.57;5.45;;;;;;;;;;5061272;28;20199;-74
2022/05/24 09:44:50;;;;;;;13.30;7.72;;;;;;;;;;5057012;28;20055;-73
2022/05/24 09:47:28;;;;;;;17.73;9.70;;;;;;;;;;5073342;28;20819;-72
2022/05/24 09:49:54;;;;;;;17.65;11.23;;;;;;;;;;5070720;28;20031;-75
2022/05/24 09:52:21;;;;;;;12.73;7.28;;;;;;;;;;5082342;28;20119;-73
2022/05/24 09:54:51;;;;;;;8.85;6.47;;;;;;;;;;5079716;28;20103;-73
2022/05/24 09:57:21;;;;;;;11.90;7.60;;;;;;;;;;5083024;28;20020;-71
2022/05/24 09:59:58;;;;;;;9.77;7.28;;;;;;;;;;5082963;28;20024;-71
2022/05/24 10:02:29;;;;;;;8.82;5.78;;;;;;;;;;5082091;28;20610;-72
2022/05/24 10:04:55;;;;;;;8.63;6.05;;;;;;;;;;5081881;28;20047;-73
2022/05/24 10:07:26;;;;;;;9.00;5.70;;;;;;;;;;5082473;28;20081;-74
2022/05/24 10:09:55;;;;;;;9.60;7.03;;;;;;;;;;5077098;28;20519;-72
2022/05/24 10:12:30;;;;;;;8.15;5.07;;;;;;;;;;5079540;28;20103;-73
2022/05/24 10:15:11;;;;;;;10.60;6.00;;;;;;;;;;5078169;28;20039;-72
2022/05/24 10:17:50;;;;;;;8.57;5.07;;;;;;;;;;5073290;28;20095;-72
2022/05/24 10:20:34;;;;;;;8.30;5.47;;;;;;;;;;5078282;28;20036;-72
2022/05/24 10:23:00;;;;;;;8.10;5.25;;;;;;;;;;5063718;28;20073;-72
2022/05/24 10:25:32;;;;;;;5.82;4.63;;;;;;;;;;5081109;28;20071;-73
2022/05/24 10:27:59;;;;;;;11.30;5.93;;;;;;;;;;5082352;28;20020;-72
2022/05/24 10:30:31;;;;;;;9.10;5.10;;;;;;;;;;5081592;28;20532;-73
2022/05/24 10:39:06;;;;;;;7.47;4.20;;;;;;;;;;5082076;28;20504;-72
2022/05/24 10:41:51;;;;;;;4.22;3.83;;;;;;;;;;5082138;28;20110;-75
2022/05/24 10:44:24;;;;;;;4.88;3.88;;;;;;;;;;5082101;28;20597;-73
2022/05/24 10:46:57;;;;;;;8.05;5.28;;;;;;;;;;5081627;28;20448;-72
2022/05/24 10:49:30;;;;;;;5.18;4.00;;;;;;;;;;5080480;28;20067;-73
2022/05/24 10:52:02;;;;;;;6.50;3.83;;;;;;;;;;5079255;28;20157;-73
2022/05/24 10:54:28;;;;;;;6.03;4.40;;;;;;;;;;5061684;28;20029;-73
2022/05/24 10:57:06;;;;;;;5.05;4.15;;;;;;;;;;5068147;28;20035;-73
2022/05/24 10:59:39;;;;;;;7.00;4.35;;;;;;;;;;5060511;28;20116;-73
2022/05/24 11:02:13;;;;;;;10.13;3.50;;;;;;;;;;5070141;28;20032;-73
2022/05/24 11:05:02;;;;;;;5.55;3.20;;;;;;;;;;5080688;28;20062;-73
2022/05/24 11:07:29;;;;;;;6.20;3.60;;;;;;;;;;5043854;28;21036;-72
2022/05/24 11:09:56;;;;;;;8.35;4.03;;;;;;;;;;5081995;28;20104;-72
2022/05/24 11:12:25;;;;;;;7.50;3.90;;;;;;;;;;5080717;28;20024;-72
2022/05/24 11:14:57;;;;;;;7.63;3.85;;;;;;;;;;5081359;28;20124;-72
2022/05/24 11:17:23;;;;;;;5.82;3.83;;;;;;;;;;5081664;28;20031;-72
2022/05/24 11:19:51;;;;;;;8.70;3.80;;;;;;;;;;5080221;28;20024;-73
2022/05/24 11:22:17;;;;;;;6.40;3.80;;;;;;;;;;5081520;28;20032;-73
2022/05/24 11:24:52;;;;;;;5.63;3.83;;;;;;;;;;5081643;28;20048;-72
2022/05/24 11:27:24;;;;;;;5.15;3.65;;;;;;;;;;5080141;28;20066;-72
2022/05/24 11:29:52;;;;;;;5.28;3.80;;;;;;;;;;5077071;28;20028;-73
2022/05/24 11:32:39;;;;;;;6.82;4.18;;;;;;;;;;5082057;28;20403;-76
2022/05/24 11:35:20;;;;;;;6.13;3.80;;;;;;;;;;5075920;28;20600;-73
2022/05/24 11:37:46;;;;;;;;;;;;;;;;;;5065689;28;20092;-73
2022/05/24 11:40:30;;;;;;;7.03;4.38;;;;;;;;;;5069045;28;19994;-76
2022/05/24 11:42:58;;;;;;;6.13;4.13;;;;;;;;;;5065790;28;20017;-73
2022/05/24 11:45:31;;;;;;;7.18;5.20;;;;;;;;;;5063950;28;20053;-72
2022/05/24 11:48:00;;;;;;;11.45;6.40;;;;;;;;;;5074334;28;20105;-72
2022/05/24 11:50:30;;;;;;;7.78;4.55;;;;;;;;;;5068517;28;20096;-74
2022/05/24 11:53:07;;;;;;;5.13;4.22;;;;;;;;;;5061266;28;20103;-72
2022/05/24 11:55:42;;;;;;;5.28;4.25;;;;;;;;;;5067708;28;20021;-73
2022/05/24 11:58:21;;;;;;;8.60;4.15;;;;;;;;;;5079865;28;20392;-72
2022/05/24 12:01:02;;;;;;;5.82;4.00;;;;;;;;;;5071647;28;20023;-73
2022/05/24 12:09:36;;;;;;;8.38;3.70;;;;;;;;;;5065125;28;20039;-72
2022/05/24 12:12:41;;;;;;;5.75;4.18;;;;;;;;;;5068402;28;20139;-73
2022/05/24 12:15:19;;;;;;;5.40;3.95;;;;;;;;;;5002293;28;20030;-74
2022/05/24 12:17:48;;;;;;;4.40;3.85;;;;;;;;;;4997118;28;20096;-75
2022/05/24 12:20:49;;;;;;;7.70;4.00;;;;;;;;;;5038269;28;20041;-73
2022/05/24 12:23:18;;;;;;;7.00;3.88;;;;;;;;;;5082009;28;20599;-73
2022/05/24 12:25:54;;;;;;;5.07;3.45;;;;;;;;;;5072190;28;20085;-72
2022/05/24 12:28:24;;;;;;;6.85;4.10;;;;;;;;;;5072411;28;20039;-73
2022/05/24 12:30:51;;;;;;;7.65;4.18;;;;;;;;;;5067167;28;20492;-72
2022/05/24 12:33:23;;;;;;;8.70;4.10;;;;;;;;;;5080671;28;20031;-74
2022/05/24 12:35:51;;;;;;;5.35;3.65;;;;;;;;;;5081328;28;20044;-72
2022/05/24 12:38:19;;;;;;;6.47;4.30;;;;;;;;;;5080655;28;20099;-75
2022/05/24 12:40:45;;;;;;;8.32;4.05;;;;;;;;;;5069312;28;20032;-78
2022/05/24 12:43:16;;;;;;;8.75;4.15;;;;;;;;;;5071258;28;20085;-73
2022/05/24 12:45:44;;;;;;;6.65;4.50;;;;;;;;;;5084697;28;20040;-72
2022/05/24 12:48:34;;;;;;;7.05;4.10;;;;;;;;;;5073859;28;20016;-72
2022/05/24 12:51:02;;;;;;;7.80;3.88;;;;;;;;;;5079518;28;20027;-72
2022/05/24 12:53:28;;;;;;;6.95;4.25;;;;;;;;;;5079769;28;20021;-72
2022/05/24 12:56:00;;;;;;;9.65;4.03;;;;;;;;;;5075182;28;20106;-72
2022/05/24 12:58:40;;;;;;;9.13;3.95;;;;;;;;;;5069250;28;20507;-74
2022/05/24 13:01:26;;;;;;;5.80;3.97;;;;;;;;;;5079104;28;20448;-73
2022/05/24 13:04:13;;;;;;;7.43;4.10;;;;;;;;;;5073010;28;20028;-76
2022/05/24 13:06:41;;;;;;;6.53;3.95;;;;;;;;;;5084087;28;20081;-73
2022/05/24 13:09:12;;;;;;;5.95;4.13;;;;;;;;;;5080435;28;20037;-72
2022/05/24 13:11:39;;;;;;;8.75;4.45;;;;;;;;;;5079673;28;20108;-74
2022/05/24 13:14:06;;;;;;;8.98;4.70;;;;;;;;;;5074661;28;20024;-72
2022/05/24 13:16:33;;;;;;;5.80;4.30;;;;;;;;;;5072316;28;20031;-73
2022/05/24 13:18:59;;;;;;;7.20;4.07;;;;;;;;;;5076611;28;20182;-73
2022/05/24 13:21:26;;;;;;;10.98;4.50;;;;;;;;;;5083975;28;20036;-73
2022/05/24 13:24:14;;;;;;;8.23;4.65;;;;;;;;;;5082105;28;20040;-76
2022/05/24 13:26:59;;;;;;;6.25;4.50;;;;;;;;;;5081324;28;20040;-75
2022/05/24 13:29:29;;;;;;;7.85;4.50;;;;;;;;;;5083566;28;20050;-72
2022/05/24 13:34:45;;;;;;;11.32;4.85;;;;;;;;;;5084015;28;20127;-79
2022/05/24 13:37:12;;;;;;;7.63;4.40;;;;;;;;;;5080947;28;20024;-82
2022/05/24 13:39:44;;;;;;;8.93;5.43;;;;;;;;;;5070264;28;20103;-80
2022/05/24 13:42:20;;;;;;;7.50;4.80;;;;;;;;;;5082180;28;20484;-84
2022/05/24 13:45:02;;;;;;;17.08;4.97;;;;;;;;;;5083373;28;20102;-78
2022/05/24 13:47:34;;;;;;;6.50;4.60;;;;;;;;;;5082711;28;20123;-79
2022/05/24 13:50:15;;;;;;;8.68;5.15;;;;;;;;;;5072773;28;20108;-79
2022/05/24 13:52:50;;;;;;;11.00;6.47;;;;;;;;;;5076418;28;20123;-78
2022/05/24 13:55:24;;;;;;;8.40;5.05;;;;;;;;;;5079647;28;20291;-79
2022/05/24 13:58:04;;;;;;;7.50;4.60;;;;;;;;;;5063147;28;20027;-78
2022/05/24 14:00:40;;;;;;;7.35;4.32;;;;;;;;;;5067380;28;20440;-78
2022/05/24 14:03:17;;;;;;;14.30;9.55;;;;;;;;;;5074109;28;20411;-73
2022/05/24 14:05:44;;;;;;;13.13;7.43;;;;;;;;;;5071570;28;20040;-72
2022/05/24 14:08:11;;;;;;;9.30;5.30;;;;;;;;;;5067438;28;20632;-75
2022/05/24 14:10:38;;;;;;;8.75;5.28;;;;;;;;;;5079920;28;20047;-75
2022/05/24 14:13:07;;;;;;;6.93;4.47;;;;;;;;;;5079815;28;20056;-77
2022/05/24 14:15:34;;;;;;;11.32;5.20;;;;;;;;;;5071580;28;20361;-74
2022/05/24 14:18:00;;;;;;;11.18;6.70;;;;;;;;;;5074791;28;20016;-74
2022/05/24 14:20:26;;;;;;;10.55;6.28;;;;;;;;;;5068855;28;20115;-74
2022/05/24 14:22:53;;;;;;;9.45;4.78;;;;;;;;;;5075801;28;20060;-74
2022/05/24 14:25:19;;;;;;;10.05;5.07;;;;;;;;;;5075467;28;20475;-74
2022/05/24 14:27:46;;;;;;;7.03;4.65;;;;;;;;;;5076292;28;20043;-73
2022/05/24 14:30:13;;;;;;;8.45;5.00;;;;;;;;;;5076788;28;20357;-76
2022/05/24 14:32:39;;;;;;;7.45;5.50;;;;;;;;;;5072020;28;20028;-74
2022/05/24 14:35:06;;;;;;;11.45;5.10;;;;;;;;;;5072999;28;20031;-75
2022/05/24 14:37:33;;;;;;;10.93;5.88;;;;;;;;;;5065769;28;20049;-75
2022/05/24 14:40:01;;;;;;;15.95;9.57;;;;;;;;;;5070374;28;20020;-74
2022/05/24 14:42:31;;;;;;;16.67;9.43;;;;;;;;;;5072387;28;20016;-75
2022/05/24 14:44:57;;;;;;;13.95;8.00;;;;;;;;;;5076488;28;20122;-75
2022/05/24 14:47:23;;;;;;;9.45;5.22;;;;;;;;;;5081394;28;20383;-75
2022/05/24 14:49:50;;;;;;;10.15;4.97;;;;;;;;;;5081767;28;20111;-73
2022/05/24 14:52:17;;;;;;;8.60;4.70;;;;;;;;;;5081913;28;20059;-74
2022/05/24 14:54:44;;;;;;;10.02;4.68;;;;;;;;;;5075251;28;20047;-75
2022/05/24 14:57:10;;;;;;;7.85;4.97;;;;;;;;;;5079793;28;20058;-75
2022/05/24 14:59:42;;;;;;;7.10;4.20;;;;;;;;;;5081701;28;20142;-75
2022/05/24 15:02:09;;;;;;;8.43;4.35;;;;;;;;;;5081908;28;20035;-73
2022/05/24 15:04:35;;;;;;;14.95;8.20;;;;;;;;;;5081398;28;20131;-74
2022/05/24 15:15:22;;;;;;;17.27;10.32;;;;;;;;;;5080647;28;20055;-74
2022/05/24 15:17:49;;;;;;;16.30;9.25;;;;;;;;;;5080510;28;20023;-74
2022/05/24 15:20:23;;;;;;;8.35;5.40;;;;;;;;;;5064742;28;20040;-76
2022/05/24 15:23:01;;;;;;;16.58;8.70;;;;;;;;;;5076225;28;20024;-74
2022/05/24 15:25:41;;;;;;;21.00;10.75;;;;;;;;;;5075756;28;20052;-73
2022/05/24 15:28:11;;;;;;;11.93;6.85;;;;;;;;;;5078066;28;20099;-74
2022/05/24 15:30:37;;;;;;;17.30;9.77;;;;;;;;;;5066503;28;20060;-74
2022/05/24 15:33:04;;;;;;;15.38;8.43;;;;;;;;;;5063071;28;20028;-74
2022/05/24 15:35:30;;;;;;;12.07;7.35;;;;;;;;;;5079377;28;20040;-74
2022/05/24 15:37:57;;;;;;;10.20;5.43;;;;;;;;;;5080731;28;20020;-73
2022/05/24 15:40:23;;;;;;;5.53;4.28;;;;;;;;;;5080187;28;20412;-74
2022/05/24 15:42:50;;;;;;;6.40;3.63;;;;;;;;;;5077791;28;20025;-74
2022/05/24 15:45:16;;;;;;;8.95;4.45;;;;;;;;;;5076640;28;20781;-73
2022/05/24 15:47:42;;;;;;;9.40;4.40;;;;;;;;;;5069614;28;20051;-74